createdAt,value
2018-02-12T00:00:50.589Z,78.10
2018-02-12T00:03:18.109Z,81.30
2018-02-12T00:05:46.443Z,78.30
2018-02-12T00:08:13.960Z,78.70
2018-02-12T00:10:44.801Z,78.90
2018-02-12T00:13:12.405Z,79.00
2018-02-12T00:15:39.913Z,78.50
2018-02-12T00:18:07.595Z,78.30
2018-02-12T00:20:35.121Z,78.40
2018-02-12T00:23:03.682Z,78.40
2018-02-12T00:25:31.443Z,79.10
2018-02-12T00:27:59.065Z,80.00
2018-02-12T00:30:26.678Z,81.20
2018-02-12T00:32:54.204Z,78.50
2018-02-12T00:35:21.864Z,78.20
2018-02-12T00:37:49.383Z,78.70
2018-02-12T00:40:16.933Z,78.70
2018-02-12T00:42:44.480Z,78.90
2018-02-12T00:45:12.004Z,78.80
2018-02-12T00:47:40.652Z,78.60
2018-02-12T00:50:08.212Z,78.40
2018-02-12T00:52:35.713Z,78.70
2018-02-12T00:55:07.301Z,79.90
2018-02-12T00:57:34.917Z,84.60
2018-02-12T01:00:02.484Z,84.10
2018-02-12T01:02:30.124Z,87.10
2018-02-12T01:04:57.691Z,88.80
2018-02-12T01:07:25.214Z,89.90
2018-02-12T01:09:54.006Z,89.90
2018-02-12T01:12:21.685Z,91.00
2018-02-12T01:14:49.358Z,90.70
2018-02-12T01:17:16.920Z,90.70
2018-02-12T01:19:44.489Z,90.00
2018-02-12T01:22:12.000Z,89.90
2018-02-12T01:24:39.635Z,90.00
2018-02-12T01:27:07.207Z,90.30
2018-02-12T01:29:34.781Z,90.20
2018-02-12T01:32:02.343Z,89.90
2018-02-12T01:34:29.905Z,89.30
2018-02-12T01:36:57.424Z,88.60
2018-02-12T01:39:24.974Z,89.20
2018-02-12T01:41:53.241Z,89.20
2018-02-12T01:44:20.909Z,89.30
2018-02-12T01:46:48.473Z,88.90
2018-02-12T01:49:16.024Z,88.40
2018-02-12T01:51:43.581Z,88.50
2018-02-12T01:54:11.200Z,87.80
2018-02-12T01:56:38.788Z,88.20
2018-02-12T01:59:06.312Z,87.50
2018-02-12T02:01:33.888Z,86.70
2018-02-12T02:04:01.461Z,86.90
2018-02-12T02:06:33.568Z,85.90
2018-02-12T02:09:01.203Z,86.90
2018-02-12T02:11:28.728Z,86.70
2018-02-12T02:13:56.334Z,85.60
2018-02-12T02:16:23.899Z,85.70
2018-02-12T02:18:51.459Z,85.50
2018-02-12T02:21:19.065Z,85.50
2018-02-12T02:23:46.769Z,85.70
2018-02-12T02:26:14.319Z,81.40
2018-02-12T02:28:41.837Z,84.80
2018-02-12T02:31:09.413Z,84.80
2018-02-12T02:33:36.932Z,84.60
2018-02-12T02:36:04.534Z,84.60
2018-02-12T02:38:32.160Z,85.70
2018-02-12T02:41:01.631Z,85.30
2018-02-12T02:43:29.625Z,85.70
2018-02-12T02:45:57.369Z,85.70
2018-02-12T02:48:24.920Z,83.00
2018-02-12T02:50:52.681Z,84.00
2018-02-12T02:53:20.240Z,86.90
2018-02-12T02:55:48.850Z,84.00
2018-02-12T02:58:16.400Z,85.20
2018-02-12T03:00:43.948Z,83.80
2018-02-12T03:03:11.751Z,83.60
2018-02-12T03:05:39.364Z,84.00
2018-02-12T03:08:06.912Z,84.40
2018-02-12T03:10:34.432Z,84.80
2018-02-12T03:13:05.271Z,83.00
2018-02-12T03:15:32.964Z,82.00
2018-02-12T03:18:01.175Z,83.00
2018-02-12T03:20:29.634Z,82.90
2018-02-12T03:22:57.266Z,82.30
2018-02-12T03:25:25.929Z,83.20
2018-02-12T03:27:53.530Z,82.40
2018-02-12T03:30:21.116Z,82.60
2018-02-12T03:32:49.360Z,81.20
2018-02-12T03:35:16.901Z,81.40
2018-02-12T03:37:44.441Z,81.20
2018-02-12T03:40:12.021Z,80.90
2018-02-12T03:42:39.560Z,80.90
2018-02-12T03:45:07.117Z,80.70
2018-02-12T03:47:34.632Z,81.40
2018-02-12T03:50:02.309Z,81.20
2018-02-12T03:52:30.097Z,80.60
2018-02-12T03:54:57.637Z,79.80
2018-02-12T03:57:25.166Z,80.50
2018-02-12T03:59:52.772Z,80.40
2018-02-12T04:02:20.304Z,80.80
2018-02-12T04:04:47.840Z,80.40
2018-02-12T04:07:15.441Z,80.10
2018-02-12T04:09:42.989Z,79.70
2018-02-12T04:12:10.501Z,76.80
2018-02-12T04:14:38.036Z,80.40
2018-02-12T04:17:05.568Z,79.50
2018-02-12T04:19:33.387Z,80.10
2018-02-12T04:22:00.977Z,79.70
2018-02-12T04:24:29.402Z,80.40
2018-02-12T04:26:57.002Z,80.10
2018-02-12T04:29:24.546Z,79.50
2018-02-12T04:31:52.076Z,79.50
2018-02-12T04:34:19.604Z,79.60
2018-02-12T04:36:47.212Z,79.20
2018-02-12T04:39:14.811Z,79.20
2018-02-12T04:41:42.706Z,80.20
2018-02-12T04:44:10.264Z,78.90
2018-02-12T04:46:37.811Z,79.20
2018-02-12T04:49:05.374Z,77.80
2018-02-12T04:51:32.921Z,78.50
2018-02-12T04:54:00.481Z,77.60
2018-02-12T04:56:27.997Z,78.70
2018-02-12T04:58:55.577Z,77.90
2018-02-12T05:01:23.117Z,77.50
2018-02-12T05:03:50.673Z,77.80
2018-02-12T05:06:18.497Z,77.80
2018-02-12T05:08:46.024Z,77.30
2018-02-12T05:11:13.599Z,78.30
2018-02-12T05:13:41.156Z,78.20
2018-02-12T05:16:08.780Z,78.50
2018-02-12T05:18:36.941Z,78.00
2018-02-12T05:21:04.504Z,78.90
2018-02-12T05:23:35.693Z,78.50
2018-02-12T05:26:03.247Z,78.30
2018-02-12T05:28:30.807Z,78.50
2018-02-12T05:30:58.385Z,78.00
2018-02-12T05:33:25.924Z,78.10
2018-02-12T05:35:53.444Z,79.00
2018-02-12T05:38:20.997Z,79.00
2018-02-12T05:40:48.565Z,79.30
2018-02-12T05:43:17.574Z,79.70
2018-02-12T05:45:45.282Z,80.30
2018-02-12T05:48:12.842Z,80.80
2018-02-12T05:50:40.381Z,79.60
2018-02-12T05:53:10.817Z,79.20
2018-02-12T05:55:42.323Z,79.90
2018-02-12T05:58:10.042Z,80.60
2018-02-12T06:00:37.602Z,79.70
2018-02-12T06:03:05.128Z,79.50
2018-02-12T06:05:32.776Z,79.60
2018-02-12T06:08:00.355Z,79.90
2018-02-12T06:10:27.886Z,79.90
2018-02-12T06:12:55.506Z,79.60
2018-02-12T06:15:23.130Z,80.20
2018-02-12T06:17:50.880Z,80.20
2018-02-12T06:20:18.586Z,83.60
2018-02-12T06:22:46.129Z,81.40
2018-02-12T06:25:13.664Z,80.80
2018-02-12T06:27:41.233Z,80.80
2018-02-12T06:30:08.781Z,81.00
2018-02-12T06:32:36.321Z,81.70
2018-02-12T06:35:03.908Z,81.60
2018-02-12T06:37:31.473Z,82.50
2018-02-12T06:39:59.038Z,82.20
2018-02-12T06:42:26.693Z,82.50
2018-02-12T06:44:54.244Z,82.10
2018-02-12T06:47:21.780Z,81.80
2018-02-12T06:49:49.318Z,82.50
2018-02-12T06:52:16.881Z,82.20
2018-02-12T06:54:44.461Z,82.20
2018-02-12T06:57:12.078Z,81.90
2018-02-12T06:59:39.690Z,81.80
2018-02-12T07:02:07.240Z,81.80
2018-02-12T07:04:34.835Z,82.00
2018-02-12T07:07:02.418Z,83.00
2018-02-12T07:09:29.970Z,82.40
2018-02-12T07:11:57.511Z,82.70
2018-02-12T07:14:25.048Z,82.60
2018-02-12T07:16:52.642Z,81.90
2018-02-12T07:19:20.199Z,82.10
2018-02-12T07:21:47.748Z,81.80
2018-02-12T07:24:15.280Z,81.40
2018-02-12T07:26:42.849Z,81.10
2018-02-12T07:29:10.480Z,81.00
2018-02-12T07:31:38.069Z,80.90
2018-02-12T07:34:05.786Z,81.80
2018-02-12T07:36:33.318Z,80.90
2018-02-12T07:39:01.160Z,81.70
2018-02-12T07:41:28.847Z,83.10
2018-02-12T07:43:56.413Z,82.30
2018-02-12T07:46:23.956Z,81.80
2018-02-12T07:48:51.596Z,80.80
2018-02-12T07:51:19.142Z,80.50
2018-02-12T07:53:46.779Z,81.10
2018-02-12T07:56:14.412Z,82.90
2018-02-12T07:58:41.969Z,80.10
2018-02-12T08:01:09.530Z,79.30
2018-02-12T08:03:37.056Z,80.40
2018-02-12T08:06:04.600Z,79.20
2018-02-12T08:08:32.135Z,79.10
2018-02-12T08:10:59.710Z,79.30
2018-02-12T08:13:27.409Z,78.40
2018-02-12T08:15:54.950Z,78.60
2018-02-12T08:18:22.508Z,78.40
2018-02-12T08:20:50.077Z,78.10
2018-02-12T08:23:17.614Z,78.50
2018-02-12T08:25:45.417Z,78.50
2018-02-12T08:28:12.934Z,78.00
2018-02-12T08:30:40.494Z,78.20
2018-02-12T08:33:08.049Z,77.90
2018-02-12T08:35:35.628Z,78.40
2018-02-12T08:38:03.142Z,78.10
2018-02-12T08:40:30.707Z,77.70
2018-02-12T08:42:58.251Z,77.90
2018-02-12T08:45:25.854Z,76.70
2018-02-12T08:47:53.435Z,77.00
2018-02-12T08:50:20.984Z,76.90
2018-02-12T08:52:48.565Z,76.80
2018-02-12T08:55:16.201Z,72.80
2018-02-12T08:57:43.788Z,76.70
2018-02-12T09:00:11.341Z,76.10
2018-02-12T09:02:38.914Z,76.50
2018-02-12T09:05:06.453Z,77.70
2018-02-12T09:07:34.114Z,75.70
2018-02-12T09:10:01.740Z,75.20
2018-02-12T09:12:29.308Z,74.80
2018-02-12T09:14:56.910Z,74.00
2018-02-12T09:17:24.479Z,73.30
2018-02-12T09:19:52.004Z,73.90
2018-02-12T09:22:19.546Z,75.10
2018-02-12T09:24:47.117Z,73.10
2018-02-12T09:27:14.658Z,73.10
2018-02-12T09:29:42.192Z,72.90
2018-02-12T09:32:10.054Z,72.30
2018-02-12T09:34:37.652Z,72.30
2018-02-12T09:37:05.181Z,71.90
2018-02-12T09:39:32.731Z,70.10
2018-02-12T09:42:00.326Z,70.90
2018-02-12T09:44:28.938Z,70.40
2018-02-12T09:46:56.634Z,69.70
2018-02-12T09:49:24.222Z,70.00
2018-02-12T09:51:51.810Z,69.10
2018-02-12T09:54:19.392Z,68.50
2018-02-12T09:56:46.966Z,68.50
2018-02-12T09:59:14.590Z,66.70
2018-02-12T10:01:42.158Z,66.80
2018-02-12T10:04:09.700Z,68.00
2018-02-12T10:06:37.268Z,72.00
2018-02-12T10:09:04.933Z,68.70
2018-02-12T10:11:32.473Z,67.80
2018-02-12T10:14:01.056Z,68.20
2018-02-12T10:16:28.966Z,68.50
2018-02-12T10:18:56.541Z,69.80
2018-02-12T10:21:24.174Z,65.50
2018-02-12T10:23:51.805Z,67.20
2018-02-12T10:26:19.373Z,67.80
2018-02-12T10:28:48.185Z,64.60
2018-02-12T10:31:15.744Z,65.00
2018-02-12T10:33:43.346Z,67.20
2018-02-12T10:36:12.594Z,65.70
2018-02-12T10:38:40.317Z,69.30
2018-02-12T10:41:08.897Z,68.10
2018-02-12T10:43:36.445Z,65.70
2018-02-12T10:46:06.058Z,65.10
2018-02-12T10:48:33.674Z,61.70
2018-02-12T10:51:01.297Z,62.10
2018-02-12T10:53:29.139Z,61.70
2018-02-12T10:55:56.658Z,60.00
2018-02-12T10:58:27.559Z,60.90
2018-02-12T11:00:55.313Z,59.40
2018-02-12T11:03:22.973Z,61.60
2018-02-12T11:05:50.546Z,59.90
2018-02-12T11:08:18.139Z,58.40
2018-02-12T11:10:45.698Z,57.00
2018-02-12T11:13:13.284Z,59.20
2018-02-12T11:15:41.664Z,59.00
2018-02-12T11:18:09.222Z,60.30
2018-02-12T11:20:36.780Z,61.60
2018-02-12T11:23:04.357Z,58.10
2018-02-12T11:25:31.956Z,61.50
2018-02-12T11:28:00.389Z,58.00
2018-02-12T11:30:27.922Z,58.30
2018-02-12T11:32:55.491Z,55.90
2018-02-12T11:35:23.034Z,54.10
2018-02-12T11:37:50.752Z,55.50
2018-02-12T11:40:18.286Z,59.50
2018-02-12T11:42:45.826Z,57.40
2018-02-12T11:45:14.200Z,58.60
2018-02-12T11:47:42.920Z,60.70
2018-02-12T11:50:10.476Z,61.40
2018-02-12T11:52:38.337Z,60.10
2018-02-12T11:55:05.879Z,63.20
2018-02-12T11:57:33.478Z,59.80
2018-02-12T12:00:01.043Z,58.40
2018-02-12T12:02:28.568Z,58.30
2018-02-12T12:04:56.133Z,58.30
2018-02-12T12:07:23.692Z,58.40
2018-02-12T12:09:51.297Z,57.50
2018-02-12T12:12:18.905Z,56.20
2018-02-12T12:14:46.470Z,56.00
2018-02-12T12:17:14.162Z,57.20
2018-02-12T12:19:41.880Z,58.10
2018-02-12T12:22:09.461Z,59.10
2018-02-12T12:24:37.098Z,58.00
2018-02-12T12:27:04.672Z,56.90
2018-02-12T12:29:32.282Z,57.90
2018-02-12T12:31:59.884Z,59.10
2018-02-12T12:34:27.475Z,59.20
2018-02-12T12:36:55.064Z,57.70
2018-02-12T12:39:22.662Z,55.30
2018-02-12T12:41:50.193Z,53.00
2018-02-12T12:44:17.745Z,54.20
2018-02-12T12:46:45.389Z,52.90
2018-02-12T12:49:13.391Z,52.60
2018-02-12T12:51:41.532Z,53.80
2018-02-12T12:54:09.114Z,53.00
2018-02-12T12:56:36.649Z,53.00
2018-02-12T12:59:04.273Z,52.40
2018-02-12T13:01:31.894Z,52.90
2018-02-12T13:04:00.381Z,53.50
2018-02-12T13:06:28.588Z,49.90
2018-02-12T13:08:56.151Z,53.20
2018-02-12T13:11:23.681Z,54.90
2018-02-12T13:13:51.274Z,53.60
2018-02-12T13:16:18.793Z,54.60
2018-02-12T13:18:46.455Z,55.20
2018-02-12T13:21:14.060Z,56.10
2018-02-12T13:23:41.594Z,55.90
2018-02-12T13:26:09.122Z,56.60
2018-02-12T13:28:36.680Z,59.00
2018-02-12T13:31:04.694Z,54.60
2018-02-12T13:33:32.265Z,53.30
2018-02-12T13:35:59.832Z,52.20
2018-02-12T13:38:27.393Z,52.10
2018-02-12T13:40:55.006Z,53.90
2018-02-12T13:43:22.557Z,51.30
2018-02-12T13:45:50.155Z,51.80
2018-02-12T13:48:19.546Z,50.90
2018-02-12T13:50:49.595Z,50.50
2018-02-12T13:53:17.201Z,51.60
2018-02-12T13:55:44.800Z,51.40
2018-02-12T13:58:12.387Z,50.80
2018-02-12T14:00:39.900Z,48.30
2018-02-12T14:03:07.427Z,47.40
2018-02-12T14:05:35.016Z,46.70
2018-02-12T14:08:02.632Z,49.30
2018-02-12T14:10:30.207Z,49.90
2018-02-12T14:12:57.826Z,49.10
2018-02-12T14:15:25.356Z,49.90
2018-02-12T14:17:53.082Z,51.30
2018-02-12T14:20:20.715Z,52.10
2018-02-12T14:22:48.916Z,53.50
2018-02-12T14:25:16.489Z,53.10
2018-02-12T14:27:44.119Z,52.20
2018-02-12T14:30:11.731Z,51.30
2018-02-12T14:32:39.284Z,50.00
2018-02-12T14:35:07.646Z,49.20
2018-02-12T14:37:35.357Z,51.40
2018-02-12T14:40:02.932Z,50.30
2018-02-12T14:42:30.626Z,50.60
2018-02-12T14:44:58.260Z,50.80
2018-02-12T14:47:25.762Z,51.60
2018-02-12T14:49:53.405Z,51.90
2018-02-12T14:52:21.006Z,53.30
2018-02-12T14:54:48.585Z,50.60
2018-02-12T14:57:16.188Z,50.30
2018-02-12T14:59:43.782Z,51.40
2018-02-12T15:02:11.385Z,53.00
2018-02-12T15:04:39.489Z,53.40
2018-02-12T15:07:07.033Z,53.90
2018-02-12T15:09:35.584Z,54.10
2018-02-12T15:12:03.261Z,54.00
2018-02-12T15:14:30.814Z,55.30
2018-02-12T15:16:58.529Z,54.90
2018-02-12T15:19:26.198Z,55.00
2018-02-12T15:21:55.558Z,53.70
2018-02-12T15:24:23.128Z,55.30
2018-02-12T15:26:51.528Z,56.50
2018-02-12T15:29:19.298Z,58.70
2018-02-12T15:31:47.012Z,66.20
2018-02-12T15:34:14.634Z,71.00
2018-02-12T15:36:44.299Z,72.30
2018-02-12T15:39:19.085Z,76.80
2018-02-12T15:41:46.694Z,79.90
2018-02-12T15:44:20.489Z,80.30
2018-02-12T15:46:48.169Z,77.90
2018-02-12T15:49:15.757Z,80.60
2018-02-12T15:51:43.324Z,80.10
2018-02-12T15:54:10.982Z,81.20
2018-02-12T15:56:38.520Z,80.00
2018-02-12T15:59:06.168Z,79.30
2018-02-12T16:01:33.700Z,76.40
2018-02-12T16:04:01.306Z,79.30
2018-02-12T16:06:28.992Z,80.60
2018-02-12T16:08:56.563Z,81.20
2018-02-12T16:11:24.435Z,80.00
2018-02-12T16:13:52.394Z,81.30
2018-02-12T16:16:20.124Z,80.70
2018-02-12T16:18:47.706Z,79.70
2018-02-12T16:21:15.308Z,79.90
2018-02-12T16:23:42.808Z,79.20
2018-02-12T16:26:11.599Z,78.20
2018-02-12T16:28:39.099Z,83.10
2018-02-12T16:31:07.060Z,75.90
2018-02-12T16:33:35.094Z,74.40
2018-02-12T16:36:02.619Z,75.10
2018-02-12T16:38:30.124Z,75.30
2018-02-12T16:40:57.919Z,76.20
2018-02-12T16:43:25.482Z,76.60
2018-02-12T16:45:53.012Z,77.40
2018-02-12T16:48:20.548Z,77.80
2018-02-12T16:50:48.698Z,77.70
2018-02-12T16:53:16.237Z,77.90
2018-02-12T16:55:43.855Z,77.70
2018-02-12T16:58:11.389Z,81.10
2018-02-12T17:00:38.924Z,78.60
2018-02-12T17:03:06.508Z,77.60
2018-02-12T17:05:34.079Z,77.40
2018-02-12T17:08:01.624Z,77.10
2018-02-12T17:10:29.169Z,78.10
2018-02-12T17:12:56.819Z,76.10
2018-02-12T17:15:24.417Z,76.20
2018-02-12T17:17:54.530Z,77.40
2018-02-12T17:20:22.183Z,76.60
2018-02-12T17:22:49.909Z,76.30
2018-02-12T17:28:01.038Z,74.80
2018-02-12T17:30:32.411Z,74.80
2018-02-12T17:33:00.096Z,73.30
2018-02-12T17:35:27.748Z,72.90
2018-02-12T17:37:55.472Z,73.70
2018-02-12T17:40:23.568Z,73.80
2018-02-12T17:42:53.465Z,71.80
2018-02-12T17:45:23.536Z,72.10
2018-02-12T17:47:51.658Z,71.30
2018-02-12T17:50:20.282Z,71.40
2018-02-12T17:52:47.829Z,73.30
2018-02-12T17:55:15.886Z,73.00
2018-02-12T17:57:43.555Z,72.00
2018-02-12T18:00:11.604Z,73.00
2018-02-12T18:02:39.276Z,71.90
2018-02-12T18:05:06.830Z,72.50
2018-02-12T18:07:34.417Z,72.10
2018-02-12T18:10:02.014Z,72.70
2018-02-12T18:12:29.993Z,72.40
2018-02-12T18:14:58.067Z,72.30
2018-02-12T18:17:26.344Z,70.80
2018-02-12T18:19:54.325Z,71.40
2018-02-12T18:22:24.060Z,70.50
2018-02-12T18:24:51.931Z,71.30
2018-02-12T18:27:20.009Z,71.60
2018-02-12T18:29:47.665Z,72.10
2018-02-12T18:32:16.498Z,70.90
2018-02-12T18:34:48.450Z,69.60
2018-02-12T18:37:16.568Z,69.80
2018-02-12T18:39:46.549Z,69.10
2018-02-12T18:42:16.289Z,69.70
2018-02-12T18:44:46.609Z,69.30
2018-02-12T18:47:16.029Z,70.30
2018-02-12T18:49:51.294Z,70.10
2018-02-12T18:52:21.773Z,71.70
2018-02-12T18:54:50.479Z,69.30
2018-02-12T18:57:18.330Z,70.60
2018-02-12T18:59:46.388Z,70.00
2018-02-12T19:02:14.538Z,70.00
2018-02-12T19:04:42.517Z,71.30
2018-02-12T19:07:11.221Z,70.20
2018-02-12T19:09:39.096Z,72.40
2018-02-12T19:12:06.744Z,70.40
2018-02-12T19:14:34.436Z,71.50
2018-02-12T19:17:02.009Z,73.20
2018-02-12T19:19:29.685Z,72.40
2018-02-12T19:21:57.363Z,70.60
2018-02-12T19:24:25.030Z,69.80
2018-02-12T19:26:52.696Z,70.40
2018-02-12T19:29:22.365Z,71.80
2018-02-12T19:31:49.983Z,70.70
2018-02-12T19:34:17.523Z,72.80
2018-02-12T19:36:45.159Z,70.30
2018-02-12T19:39:12.898Z,70.80
2018-02-12T19:41:40.562Z,71.20
2018-02-12T19:46:42.091Z,72.50
2018-02-12T19:49:09.755Z,70.00
2018-02-12T19:51:37.478Z,71.50
2018-02-12T19:54:05.118Z,71.10
2018-02-12T19:56:32.747Z,72.00
2018-02-12T19:59:00.323Z,71.90
2018-02-12T20:01:27.928Z,70.80
2018-02-12T20:03:55.605Z,72.30
2018-02-12T20:06:23.297Z,71.60
2018-02-12T20:08:50.895Z,70.90
2018-02-12T20:11:18.506Z,71.80
2018-02-12T20:13:46.274Z,74.00
2018-02-12T20:16:14.107Z,74.30
2018-02-12T20:18:41.830Z,71.30
2018-02-12T20:21:09.640Z,73.50
2018-02-12T20:23:37.430Z,73.10
2018-02-12T20:26:05.104Z,74.60
2018-02-12T20:28:32.712Z,75.60
2018-02-12T20:31:00.325Z,76.50
2018-02-12T20:33:28.235Z,75.50
2018-02-12T20:35:56.082Z,76.40
2018-02-12T20:38:24.181Z,77.80
2018-02-12T20:40:52.106Z,77.00
2018-02-12T20:43:20.632Z,76.30
2018-02-12T20:45:48.778Z,75.40
2018-02-12T20:48:17.651Z,76.30
2018-02-12T20:50:46.380Z,76.50
2018-02-12T20:53:15.658Z,77.00
2018-02-12T20:55:45.708Z,75.20
2018-02-12T20:58:14.948Z,76.70
2018-02-12T21:00:42.758Z,78.00
2018-02-12T21:03:10.522Z,78.10
2018-02-12T21:05:39.624Z,78.30
2018-02-12T21:08:08.410Z,78.60
2018-02-12T21:10:36.447Z,78.60
2018-02-12T21:13:04.051Z,76.60
2018-02-12T21:15:31.741Z,79.70
2018-02-12T21:17:59.669Z,79.80
2018-02-12T21:20:31.612Z,78.60
2018-02-12T21:22:59.462Z,79.50
2018-02-12T21:25:27.009Z,77.70
2018-02-12T21:27:55.109Z,78.30
2018-02-12T21:30:23.214Z,77.90
2018-02-12T21:32:52.306Z,79.00
2018-02-12T21:35:21.113Z,79.60
2018-02-12T21:37:49.153Z,78.90
2018-02-12T21:40:17.554Z,81.00
2018-02-12T21:42:45.706Z,80.40
2018-02-12T21:45:13.810Z,79.40
2018-02-12T21:47:41.468Z,80.10
2018-02-12T21:50:08.991Z,82.20
2018-02-12T21:52:36.650Z,82.20
2018-02-12T21:55:04.190Z,82.00
2018-02-12T21:57:31.714Z,82.40
2018-02-12T21:59:59.957Z,82.80
2018-02-12T22:02:30.224Z,81.00
2018-02-12T22:04:59.788Z,80.90
2018-02-12T22:07:28.325Z,81.50
2018-02-12T22:09:56.371Z,79.10
2018-02-12T22:12:24.247Z,79.50
2018-02-12T22:14:53.626Z,80.70
2018-02-12T22:17:21.393Z,80.60
2018-02-12T22:19:49.195Z,80.20
2018-02-12T22:22:17.088Z,81.50
2018-02-12T22:24:46.126Z,79.90
2018-02-12T22:27:14.492Z,81.10
2018-02-12T22:29:46.540Z,79.60
2018-02-12T22:32:14.535Z,81.90
2018-02-12T22:34:43.494Z,80.50
2018-02-12T22:37:11.541Z,80.90
2018-02-12T22:39:39.527Z,77.20
2018-02-12T22:42:07.529Z,77.80
2018-02-12T22:44:35.363Z,78.30
2018-02-12T22:47:03.032Z,79.90
2018-02-12T22:49:30.655Z,80.50
2018-02-12T22:51:58.848Z,78.40
2018-02-12T22:54:26.827Z,77.10
2018-02-12T22:56:54.811Z,78.30
2018-02-12T22:59:22.851Z,76.60
2018-02-12T23:01:50.744Z,76.70
2018-02-12T23:04:18.416Z,76.50
2018-02-12T23:06:46.105Z,78.50
2018-02-12T23:09:14.434Z,77.10
2018-02-12T23:11:42.272Z,77.40
2018-02-12T23:14:10.086Z,77.60
2018-02-12T23:16:37.845Z,77.80
2018-02-12T23:19:05.484Z,78.50
2018-02-12T23:21:33.026Z,79.40
2018-02-12T23:24:00.620Z,78.50
2018-02-12T23:26:29.336Z,76.20
2018-02-12T23:28:57.276Z,76.60
2018-02-12T23:31:25.261Z,76.90
2018-02-12T23:33:52.942Z,76.40
2018-02-12T23:36:21.031Z,76.80
2018-02-12T23:38:48.921Z,73.40
2018-02-12T23:41:16.760Z,75.00
2018-02-12T23:43:44.558Z,74.50
2018-02-12T23:46:12.563Z,74.30
2018-02-12T23:48:42.276Z,73.50
2018-02-12T23:51:17.956Z,74.90
2018-02-12T23:53:48.423Z,74.70
2018-02-12T23:56:16.430Z,74.50
2018-02-12T23:58:48.378Z,73.60
